createdAt,value
2017-06-23T00:02:52.057Z,56.03
2017-06-23T00:03:52.324Z,55.83
2017-06-23T00:04:52.263Z,56.03
2017-06-23T00:05:52.200Z,56.13
2017-06-23T00:06:52.139Z,56.41
2017-06-23T00:07:52.078Z,55.93
2017-06-23T00:08:52.015Z,56.32
2017-06-23T00:09:51.952Z,56.41
2017-06-23T00:10:51.895Z,56.13
2017-06-23T00:11:51.829Z,56.9
2017-06-23T00:12:51.766Z,56.32
2017-06-23T00:13:51.705Z,55.93
2017-06-23T00:14:51.315Z,56.51
2017-06-23T00:15:51.581Z,56.03
2017-06-23T00:16:51.521Z,56.03
2017-06-23T00:17:51.456Z,56.03
2017-06-23T00:18:51.068Z,55.83
2017-06-23T00:19:51.333Z,56.22
2017-06-23T00:20:51.274Z,55.93
2017-06-23T00:21:51.212Z,56.41
2017-06-23T00:22:51.153Z,55.93
2017-06-23T00:23:51.086Z,55.83
2017-06-23T00:24:51.046Z,56.51
2017-06-23T00:25:50.964Z,56.9
2017-06-23T00:26:50.902Z,56.03
2017-06-23T00:27:50.839Z,56.13
2017-06-23T00:28:50.779Z,55.83
2017-06-23T00:29:50.717Z,56.22
2017-06-23T00:30:50.331Z,55.93
2017-06-23T00:31:50.592Z,55.93
2017-06-23T00:32:50.531Z,56.03
2017-06-23T00:33:50.469Z,55.83
2017-06-23T00:34:50.408Z,56.41
2017-06-23T00:35:50.347Z,56.13
2017-06-23T00:36:50.283Z,55.74
2017-06-23T00:37:50.220Z,55.83
2017-06-23T00:38:50.163Z,56.13
2017-06-23T00:39:50.097Z,56.51
2017-06-23T00:40:50.037Z,56.32
2017-06-23T00:41:49.974Z,56.22
2017-06-23T00:42:49.912Z,56.32
2017-06-23T00:43:49.851Z,56.22
2017-06-23T00:44:49.789Z,56.13
2017-06-23T00:45:49.728Z,55.93
2017-06-23T00:46:49.665Z,56.13
2017-06-23T00:47:49.606Z,55.93
2017-06-23T00:48:49.540Z,56.13
2017-06-23T00:49:49.480Z,56.13
2017-06-23T00:50:49.536Z,55.83
2017-06-23T00:51:49.357Z,55.74
2017-06-23T00:52:49.295Z,55.83
2017-06-23T00:53:48.909Z,56.03
2017-06-23T00:54:49.173Z,56.22
2017-06-23T00:55:49.111Z,56.03
2017-06-23T00:56:49.055Z,56.13
2017-06-23T00:57:48.985Z,56.32
2017-06-23T00:58:48.924Z,56.03
2017-06-23T00:59:48.862Z,56.22
2017-06-23T01:00:49.002Z,55.74
2017-06-23T01:01:48.738Z,55.83
2017-06-23T01:02:48.676Z,56.13
2017-06-23T01:03:48.614Z,56.03
2017-06-23T01:04:48.557Z,56.03
2017-06-23T01:05:48.492Z,56.8
2017-06-23T01:06:48.431Z,55.83
2017-06-23T01:07:48.371Z,55.83
2017-06-23T01:08:48.309Z,56.22
2017-06-23T01:09:48.245Z,55.65
2017-06-23T01:10:48.183Z,56.13
2017-06-23T01:11:48.124Z,55.93
2017-06-23T01:12:48.058Z,55.93
2017-06-23T01:13:47.998Z,56.03
2017-06-23T01:14:47.935Z,56.03
2017-06-23T01:15:47.545Z,56.03
2017-06-23T01:16:47.813Z,56.41
2017-06-23T01:17:47.757Z,56.13
2017-06-23T01:18:47.688Z,55.83
2017-06-23T01:19:47.633Z,56.03
2017-06-23T01:20:47.585Z,56.13
2017-06-23T01:21:47.504Z,56.41
2017-06-23T01:22:47.444Z,56.22
2017-06-23T01:23:47.380Z,56.32
2017-06-23T01:24:47.321Z,55.74
2017-06-23T01:25:47.506Z,56.32
2017-06-23T01:26:47.197Z,56.03
2017-06-23T01:27:47.133Z,56.22
2017-06-23T01:28:47.072Z,56.41
2017-06-23T01:29:47.012Z,56.03
2017-06-23T01:30:46.947Z,56.22
2017-06-23T01:31:46.888Z,55.74
2017-06-23T01:32:46.823Z,56.22
2017-06-23T01:33:46.761Z,55.93
2017-06-23T01:34:46.701Z,56.03
2017-06-23T01:35:46.639Z,56.13
2017-06-23T01:36:46.579Z,55.65
2017-06-23T01:37:46.189Z,56.13
2017-06-23T01:38:46.458Z,55.65
2017-06-23T01:39:46.393Z,55.93
2017-06-23T01:40:46.330Z,55.74
2017-06-23T01:41:46.270Z,56.13
2017-06-23T01:42:46.208Z,56.03
2017-06-23T01:43:46.144Z,55.65
2017-06-23T01:44:46.086Z,55.93
2017-06-23T01:45:46.021Z,56.03
2017-06-23T01:46:45.960Z,55.74
2017-06-23T01:47:45.900Z,56.13
2017-06-23T01:48:45.836Z,55.74
2017-06-23T01:49:45.775Z,55.83
2017-06-23T01:50:45.715Z,55.74
2017-06-23T01:51:45.650Z,55.65
2017-06-23T01:52:45.588Z,56.13
2017-06-23T01:53:45.526Z,56.22
2017-06-23T01:54:45.465Z,55.93
2017-06-23T01:55:45.402Z,56.13
2017-06-23T01:56:45.342Z,55.93
2017-06-23T01:57:45.280Z,56.13
2017-06-23T01:58:45.228Z,56.22
2017-06-23T01:59:45.155Z,55.65
2017-06-23T02:00:45.096Z,55.83
2017-06-23T02:01:45.036Z,55.83
2017-06-23T02:02:44.970Z,55.93
2017-06-23T02:03:44.909Z,56.03
2017-06-23T02:04:44.848Z,56.13
2017-06-23T02:05:44.784Z,55.83
2017-06-23T02:06:44.723Z,56.22
2017-06-23T02:07:44.662Z,55.83
2017-06-23T02:08:44.601Z,56.32
2017-06-23T02:09:44.539Z,56.32
2017-06-23T02:10:44.495Z,56.22
2017-06-23T02:11:44.417Z,55.45
2017-06-23T02:12:44.354Z,56.03
2017-06-23T02:13:43.963Z,56.03
2017-06-23T02:14:44.229Z,56.03
2017-06-23T02:15:43.839Z,55.93
2017-06-23T02:16:44.106Z,56.13
2017-06-23T02:17:44.044Z,55.93
2017-06-23T02:18:44.013Z,56.22
2017-06-23T02:19:43.923Z,55.74
2017-06-23T02:20:43.859Z,56.13
2017-06-23T02:21:43.799Z,56.03
2017-06-23T02:22:43.736Z,56.13
2017-06-23T02:23:43.674Z,56.22
2017-06-23T02:24:43.613Z,56.22
2017-06-23T02:25:43.550Z,56.03
2017-06-23T02:26:43.490Z,56.22
2017-06-23T02:27:43.427Z,56.03
2017-06-23T02:28:43.367Z,56.32
2017-06-23T02:29:43.303Z,56.03
2017-06-23T02:30:43.244Z,55.74
2017-06-23T02:31:43.182Z,56.22
2017-06-23T02:32:43.128Z,55.83
2017-06-23T02:33:43.066Z,56.03
2017-06-23T02:34:42.995Z,55.93
2017-06-23T02:35:42.606Z,56.13
2017-06-23T02:36:42.543Z,55.83
2017-06-23T02:37:42.810Z,55.93
2017-06-23T02:38:42.750Z,56.22
2017-06-23T02:39:42.686Z,56.03
2017-06-23T02:40:42.630Z,56.13
2017-06-23T02:41:42.563Z,56.22
2017-06-23T02:42:42.500Z,56.13
2017-06-23T02:43:42.437Z,56.13
2017-06-23T02:44:42.377Z,56.03
2017-06-23T02:45:42.315Z,55.65
2017-06-23T02:46:42.257Z,56.03
2017-06-23T02:47:42.192Z,55.93
2017-06-23T02:48:42.131Z,55.83
2017-06-23T02:49:42.069Z,56.03
2017-06-23T02:50:42.007Z,55.93
2017-06-23T02:51:41.945Z,55.93
2017-06-23T02:52:41.885Z,55.83
2017-06-23T02:53:41.827Z,55.83
2017-06-23T02:54:41.760Z,56.03
2017-06-23T02:55:41.698Z,56.32
2017-06-23T02:56:41.639Z,55.65
2017-06-23T02:57:41.576Z,56.03
2017-06-23T02:58:41.514Z,56.51
2017-06-23T02:59:41.452Z,55.74
2017-06-23T03:00:41.394Z,56.03
2017-06-23T03:01:41.332Z,55.93
2017-06-23T03:02:41.268Z,55.93
2017-06-23T03:03:41.205Z,56.13
2017-06-23T03:04:41.143Z,55.93
2017-06-23T03:05:41.082Z,55.93
2017-06-23T03:06:41.020Z,56.03
2017-06-23T03:07:40.958Z,56.13
2017-06-23T03:08:40.896Z,56.03
2017-06-23T03:09:40.835Z,56.13
2017-06-23T03:10:40.775Z,56.03
2017-06-23T03:11:40.711Z,56.13
2017-06-23T03:12:40.649Z,55.83
2017-06-23T03:13:40.587Z,56.13
2017-06-23T03:14:40.526Z,56.22
2017-06-23T03:15:40.464Z,55.83
2017-06-23T03:16:40.402Z,55.93
2017-06-23T03:17:40.340Z,56.03
2017-06-23T03:18:40.278Z,55.74
2017-06-23T03:19:40.216Z,55.83
2017-06-23T03:20:40.156Z,56.22
2017-06-23T03:21:40.102Z,56.13
2017-06-23T03:22:40.033Z,56.22
2017-06-23T03:23:39.968Z,55.83
2017-06-23T03:24:39.907Z,56.03
2017-06-23T03:25:39.847Z,55.83
2017-06-23T03:26:39.783Z,55.83
2017-06-23T03:27:39.728Z,55.83
2017-06-23T03:28:39.663Z,56.13
2017-06-23T03:29:39.599Z,55.74
2017-06-23T03:30:39.537Z,56.13
2017-06-23T03:31:39.477Z,56.13
2017-06-23T03:32:39.415Z,56.13
2017-06-23T03:33:39.352Z,56.41
2017-06-23T03:34:39.291Z,56.13
2017-06-23T03:35:39.230Z,56.51
2017-06-23T03:36:39.178Z,56.13
2017-06-23T03:37:39.105Z,56.22
2017-06-23T03:38:39.042Z,56.22
2017-06-23T03:39:39.185Z,57.09
2017-06-23T03:40:38.919Z,56.22
2017-06-23T03:41:38.860Z,56.22
2017-06-23T03:42:38.799Z,56.9
2017-06-23T03:43:38.734Z,56.99
2017-06-23T03:44:38.680Z,56.71
2017-06-23T03:45:38.812Z,56.9
2017-06-23T03:46:38.562Z,56.99
2017-06-23T03:47:38.489Z,56.8
2017-06-23T03:48:38.425Z,56.9
2017-06-23T03:49:38.363Z,56.9
2017-06-23T03:50:38.302Z,56.41
2017-06-23T03:51:38.242Z,56.51
2017-06-23T03:52:38.181Z,56.41
2017-06-23T03:53:38.117Z,56.8
2017-06-23T03:54:37.728Z,56.51
2017-06-23T03:55:37.995Z,56.99
2017-06-23T03:56:37.933Z,56.32
2017-06-23T03:57:37.871Z,56.41
2017-06-23T03:58:37.808Z,56.61
2017-06-23T03:59:37.747Z,56.51
2017-06-23T04:00:37.685Z,56.61
2017-06-23T04:01:37.627Z,56.8
2017-06-23T04:02:37.562Z,56.8
2017-06-23T04:03:37.499Z,56.61
2017-06-23T04:04:37.438Z,56.8
2017-06-23T04:05:37.379Z,56.51
2017-06-23T04:06:37.314Z,56.8
2017-06-23T04:07:37.252Z,57.19
2017-06-23T04:08:37.191Z,57.57
2017-06-23T04:09:37.128Z,57.29
2017-06-23T04:10:37.068Z,57.29
2017-06-23T04:11:37.006Z,57.48
2017-06-23T04:12:36.618Z,57.48
2017-06-23T04:13:36.754Z,58.06
2017-06-23T04:14:36.822Z,58.06
2017-06-23T04:15:36.758Z,57.67
2017-06-23T04:16:36.699Z,57.67
2017-06-23T04:17:36.638Z,58.54
2017-06-23T04:18:36.573Z,58.25
2017-06-23T04:19:36.512Z,58.45
2017-06-23T04:20:36.461Z,58.64
2017-06-23T04:21:36.388Z,59.22
2017-06-23T04:22:36.325Z,58.83
2017-06-23T04:23:35.936Z,58.64
2017-06-23T04:24:36.220Z,58.93
2017-06-23T04:25:36.140Z,59.02
2017-06-23T04:26:36.080Z,58.73
2017-06-23T04:27:36.035Z,59.41
2017-06-23T04:28:35.956Z,59.12
2017-06-23T04:29:35.894Z,59.31
2017-06-23T04:30:35.832Z,59.41
2017-06-23T04:31:35.771Z,59.12
2017-06-23T04:32:35.709Z,59.02
2017-06-23T04:33:35.647Z,59.41
2017-06-23T04:34:35.257Z,59.51
2017-06-23T04:35:35.523Z,59.89
2017-06-23T04:36:35.461Z,59.7
2017-06-23T04:37:35.071Z,59.51
2017-06-23T04:38:35.337Z,60.09
2017-06-23T04:39:35.275Z,60.09
2017-06-23T04:40:35.215Z,59.89
2017-06-23T04:41:35.154Z,59.77
2017-06-23T04:42:35.090Z,59.96
2017-06-23T04:43:35.033Z,60.16
2017-06-23T04:44:34.967Z,60.06
2017-06-23T04:45:34.906Z,60.25
2017-06-23T04:46:34.842Z,60.25
2017-06-23T04:47:34.781Z,60.47
2017-06-23T04:48:34.719Z,60.25
2017-06-23T04:49:34.658Z,59.86
2017-06-23T04:50:34.597Z,59.86
2017-06-23T04:51:34.538Z,60.25
2017-06-23T04:52:34.473Z,60.57
2017-06-23T04:53:34.411Z,60.76
2017-06-23T04:54:34.349Z,60.44
2017-06-23T04:55:34.287Z,60.67
2017-06-23T04:56:33.896Z,60.44
2017-06-23T04:57:34.162Z,60.44
2017-06-23T04:58:34.099Z,60.09
2017-06-23T04:59:33.710Z,60.35
2017-06-23T05:00:33.978Z,60.38
2017-06-23T05:01:33.914Z,60.54
2017-06-23T05:02:33.857Z,60.54
2017-06-23T05:03:33.794Z,60.54
2017-06-23T05:04:33.739Z,60.67
2017-06-23T05:05:33.669Z,61.02
2017-06-23T05:06:33.607Z,60.96
2017-06-23T05:07:33.217Z,61.12
2017-06-23T05:08:33.482Z,60.96
2017-06-23T05:09:33.093Z,60.73
2017-06-23T05:10:33.358Z,60.83
2017-06-23T05:11:33.296Z,61.12
2017-06-23T05:12:33.235Z,61.15
2017-06-23T05:13:33.174Z,61.22
2017-06-23T05:14:33.115Z,61.8
2017-06-23T05:15:32.721Z,61.22
2017-06-23T05:16:32.986Z,61.51
2017-06-23T05:17:32.924Z,61.6
2017-06-23T05:18:32.535Z,61.51
2017-06-23T05:19:32.800Z,61.51
2017-06-23T05:20:32.740Z,61.51
2017-06-23T05:21:32.678Z,61.41
2017-06-23T05:22:32.621Z,61.7
2017-06-23T05:23:32.553Z,61.6
2017-06-23T05:24:32.490Z,61.6
2017-06-23T05:25:32.429Z,61.7
2017-06-23T05:26:32.366Z,61.41
2017-06-23T05:27:32.306Z,61.41
2017-06-23T05:28:32.244Z,61.51
2017-06-23T05:29:32.188Z,61.99
2017-06-23T05:30:31.790Z,61.89
2017-06-23T05:31:32.057Z,61.99
2017-06-23T05:32:32.002Z,61.89
2017-06-23T05:33:31.932Z,62.47
2017-06-23T05:34:31.874Z,61.99
2017-06-23T05:35:31.810Z,62.18
2017-06-23T05:36:31.746Z,62.28
2017-06-23T05:37:31.687Z,62.28
2017-06-23T05:38:31.622Z,62.18
2017-06-23T05:39:31.567Z,62.08
2017-06-23T05:40:31.501Z,62.37
2017-06-23T05:41:31.438Z,62.57
2017-06-23T05:42:31.375Z,62.47
2017-06-23T05:43:31.314Z,62.37
2017-06-23T05:44:31.250Z,62.57
2017-06-23T05:45:31.190Z,62.66
2017-06-23T05:46:31.128Z,62.66
2017-06-23T05:47:31.065Z,63.05
2017-06-23T05:48:31.004Z,62.86
2017-06-23T05:49:30.939Z,62.95
2017-06-23T05:50:30.881Z,62.47
2017-06-23T05:51:30.817Z,62.76
2017-06-23T05:52:30.755Z,62.86
2017-06-23T05:53:30.698Z,63.15
2017-06-23T05:54:30.642Z,62.95
2017-06-23T05:55:30.569Z,62.66
2017-06-23T05:56:30.506Z,62.95
2017-06-23T05:57:30.446Z,62.76
2017-06-23T05:58:30.383Z,63.05
2017-06-23T05:59:30.321Z,62.95
2017-06-23T06:00:30.258Z,63.34
2017-06-23T06:01:30.196Z,63.05
2017-06-23T06:02:30.137Z,63.05
2017-06-23T06:03:30.072Z,63.05
2017-06-23T06:04:30.013Z,63.15
2017-06-23T06:05:29.951Z,62.95
2017-06-23T06:06:29.886Z,62.66
2017-06-23T06:07:29.824Z,62.76
2017-06-23T06:08:29.761Z,62.57
2017-06-23T06:09:29.699Z,62.66
2017-06-23T06:10:29.666Z,62.95
2017-06-23T06:11:29.576Z,63.15
2017-06-23T06:12:29.512Z,63.05
2017-06-23T06:13:29.450Z,63.05
2017-06-23T06:14:29.060Z,62.57
2017-06-23T06:15:29.327Z,63.63
2017-06-23T06:16:29.265Z,63.63
2017-06-23T06:17:29.203Z,63.15
2017-06-23T06:18:29.138Z,63.15
2017-06-23T06:19:29.078Z,63.43
2017-06-23T06:20:29.016Z,63.43
2017-06-23T06:21:28.953Z,63.43
2017-06-23T06:22:28.891Z,63.34
2017-06-23T06:23:28.830Z,63.43
2017-06-23T06:24:28.765Z,63.43
2017-06-23T06:25:28.706Z,63.53
2017-06-23T06:26:28.643Z,63.43
2017-06-23T06:27:28.583Z,63.34
2017-06-23T06:28:28.520Z,62.95
2017-06-23T06:29:28.457Z,63.53
2017-06-23T06:30:28.399Z,63.43
2017-06-23T06:31:28.331Z,63.34
2017-06-23T06:32:28.272Z,63.43
2017-06-23T06:33:28.210Z,63.34
2017-06-23T06:34:28.145Z,63.43
2017-06-23T06:35:28.081Z,63.53
2017-06-23T06:36:28.022Z,63.34
2017-06-23T06:37:27.959Z,63.34
2017-06-23T06:38:27.898Z,63.34
2017-06-23T06:39:27.833Z,63.24
2017-06-23T06:40:27.771Z,63.31
2017-06-23T06:41:27.710Z,63.53
2017-06-23T06:42:27.650Z,63.34
2017-06-23T06:43:27.587Z,63.15
2017-06-23T06:44:27.523Z,63.15
2017-06-23T06:45:27.460Z,63.24
2017-06-23T06:46:27.397Z,63.15
2017-06-23T06:47:27.335Z,63.34
2017-06-23T06:48:27.277Z,63.34
2017-06-23T06:49:27.209Z,63.24
2017-06-23T06:50:27.150Z,63.24
2017-06-23T06:51:27.088Z,63.34
2017-06-23T06:52:26.697Z,63.24
2017-06-23T06:53:26.961Z,63.24
2017-06-23T06:54:26.899Z,63.21
2017-06-23T06:55:26.520Z,63.12
2017-06-23T06:56:26.777Z,63.7
2017-06-23T06:57:26.713Z,63.5
2017-06-23T06:58:26.651Z,63.4
2017-06-23T06:59:26.586Z,63.98
2017-06-23T07:00:26.525Z,63.5
2017-06-23T07:01:26.462Z,63.92
2017-06-23T07:02:26.403Z,63.6
2017-06-23T07:03:26.349Z,63.5
2017-06-23T07:04:26.294Z,63.12
2017-06-23T07:05:26.363Z,64.11
2017-06-23T07:06:26.151Z,63.5
2017-06-23T07:07:26.090Z,63.98
2017-06-23T07:08:26.026Z,63.79
2017-06-23T07:09:25.964Z,64.08
2017-06-23T07:10:25.902Z,63.79
2017-06-23T07:11:25.842Z,63.79
2017-06-23T07:12:25.779Z,63.79
2017-06-23T07:13:25.716Z,64.08
2017-06-23T07:14:25.653Z,63.79
2017-06-23T07:15:25.264Z,63.98
2017-06-23T07:16:25.530Z,63.98
2017-06-23T07:17:25.464Z,63.98
2017-06-23T07:18:25.402Z,63.98
2017-06-23T07:19:25.341Z,64.08
2017-06-23T07:20:25.278Z,63.98
2017-06-23T07:21:25.216Z,63.79
2017-06-23T07:22:24.835Z,64.08
2017-06-23T07:23:25.092Z,63.98
2017-06-23T07:24:25.029Z,63.98
2017-06-23T07:25:24.644Z,63.98
2017-06-23T07:26:24.576Z,63.98
2017-06-23T07:27:24.844Z,63.98
2017-06-23T07:28:24.784Z,64.08
2017-06-23T07:29:24.390Z,63.98
2017-06-23T07:30:24.655Z,63.98
2017-06-23T07:31:24.344Z,64.08
2017-06-23T07:32:24.200Z,63.79
2017-06-23T07:33:24.466Z,63.7
2017-06-23T07:34:24.405Z,63.79
2017-06-23T07:35:24.344Z,63.6
2017-06-23T07:36:24.280Z,63.79
2017-06-23T07:37:24.227Z,64.08
2017-06-23T07:38:23.826Z,63.12
2017-06-23T07:39:24.095Z,63.5
2017-06-23T07:40:24.035Z,63.31
2017-06-23T07:41:23.969Z,62.92
2017-06-23T07:42:23.904Z,63.12
2017-06-23T07:43:23.844Z,63.31
2017-06-23T07:44:23.790Z,63.5
2017-06-23T07:45:23.765Z,63.31
2017-06-23T07:46:23.664Z,63.5
2017-06-23T07:47:23.593Z,63.21
2017-06-23T07:48:23.204Z,63.12
2017-06-23T07:49:23.468Z,63.21
2017-06-23T07:50:23.077Z,63.4
2017-06-23T07:51:23.344Z,63.31
2017-06-23T07:52:23.283Z,63.6
2017-06-23T07:53:23.218Z,63.4
2017-06-23T07:54:22.828Z,63.4
2017-06-23T07:55:23.095Z,63.4
2017-06-23T07:56:23.031Z,63.4
2017-06-23T07:57:23.044Z,63.31
2017-06-23T07:58:22.907Z,63.5
2017-06-23T07:59:22.843Z,63.4
2017-06-23T08:00:22.781Z,63.31
2017-06-23T08:01:22.718Z,63.5
2017-06-23T08:02:22.656Z,63.4
2017-06-23T08:03:22.594Z,63.4
2017-06-23T08:04:22.530Z,63.4
2017-06-23T08:05:22.470Z,63.31
2017-06-23T08:06:22.410Z,63.5
2017-06-23T08:07:22.344Z,63.5
2017-06-23T08:08:22.283Z,63.4
2017-06-23T08:09:22.232Z,63.31
2017-06-23T08:10:22.156Z,63.6
2017-06-23T08:11:22.095Z,63.7
2017-06-23T08:12:21.714Z,63.31
2017-06-23T08:13:21.970Z,63.4
2017-06-23T08:14:21.936Z,63.4
2017-06-23T08:15:21.842Z,63.5
2017-06-23T08:16:21.781Z,63.5
2017-06-23T08:17:21.720Z,63.5
2017-06-23T08:18:21.658Z,63.5
2017-06-23T08:19:21.594Z,63.12
2017-06-23T08:20:21.202Z,63.31
2017-06-23T08:21:21.468Z,63.4
2017-06-23T08:22:21.080Z,63.4
2017-06-23T08:23:21.015Z,63.6
2017-06-23T08:24:20.954Z,63.4
2017-06-23T08:25:21.220Z,63.4
2017-06-23T08:26:21.156Z,63.02
2017-06-23T08:27:21.092Z,63.31
2017-06-23T08:28:20.702Z,63.31
2017-06-23T08:29:20.639Z,63.21
2017-06-23T08:30:20.905Z,63.31
2017-06-23T08:31:20.614Z,63.4
2017-06-23T08:32:20.787Z,63.21
2017-06-23T08:33:20.389Z,63.02
2017-06-23T08:34:20.662Z,63.12
2017-06-23T08:35:20.593Z,62.63
2017-06-23T08:36:20.931Z,62.54
2017-06-23T08:37:20.468Z,62.54
2017-06-23T08:38:20.403Z,62.92
2017-06-23T08:39:20.342Z,62.82
2017-06-23T08:40:20.282Z,62.73
2017-06-23T08:41:20.238Z,62.92
2017-06-23T08:42:20.157Z,62.63
2017-06-23T08:43:20.092Z,62.82
2017-06-23T08:44:20.032Z,63.02
2017-06-23T08:45:19.971Z,62.63
2017-06-23T08:46:19.578Z,62.73
2017-06-23T08:47:19.867Z,62.82
2017-06-23T08:48:19.782Z,63.12
2017-06-23T08:49:19.718Z,62.63
2017-06-23T08:50:19.654Z,62.54
2017-06-23T08:51:19.603Z,62.44
2017-06-23T08:52:19.531Z,62.44
2017-06-23T08:53:19.466Z,62.54
2017-06-23T08:54:19.402Z,62.34
2017-06-23T08:55:19.339Z,62.44
2017-06-23T08:56:19.279Z,62.05
2017-06-23T08:57:19.216Z,61.96
2017-06-23T08:58:19.151Z,61.47
2017-06-23T08:59:19.090Z,61.67
2017-06-23T09:00:19.031Z,61.57
2017-06-23T09:01:18.639Z,61.86
2017-06-23T09:02:18.901Z,60.71
2017-06-23T09:03:18.842Z,61.28
2017-06-23T09:04:18.778Z,61.28
2017-06-23T09:05:18.714Z,61.47
2017-06-23T09:06:18.652Z,60.99
2017-06-23T09:07:33.119Z,61.09
2017-06-23T09:08:18.526Z,61.19
2017-06-23T09:09:18.667Z,61.47
2017-06-23T09:10:18.401Z,60.99
2017-06-23T09:11:18.340Z,60.61
2017-06-23T09:12:18.529Z,61.28
2017-06-23T09:13:18.226Z,60.41
2017-06-23T09:14:18.152Z,60.8
2017-06-23T09:15:18.092Z,60.41
2017-06-23T09:16:18.028Z,60.44
2017-06-23T09:17:17.965Z,61.09
2017-06-23T09:18:17.907Z,60.61
2017-06-23T09:19:17.842Z,60.89
2017-06-23T09:20:17.779Z,60.51
2017-06-23T09:21:17.716Z,60.61
2017-06-23T09:22:17.656Z,60.71
2017-06-23T09:23:17.593Z,60.64
2017-06-23T09:24:17.530Z,60.03
2017-06-23T09:25:17.135Z,59.93
2017-06-23T09:26:17.406Z,60.61
2017-06-23T09:27:17.341Z,59.55
2017-06-23T09:28:17.280Z,59.58
2017-06-23T09:29:17.227Z,59.93
2017-06-23T09:30:17.167Z,59.74
2017-06-23T09:31:17.092Z,59.74
2017-06-23T09:32:17.029Z,60.03
2017-06-23T09:33:16.970Z,59.64
2017-06-23T09:34:16.902Z,60.03
2017-06-23T09:35:16.840Z,59.83
2017-06-23T09:36:16.785Z,60.03
2017-06-23T09:37:16.391Z,59.74
2017-06-23T09:38:16.902Z,59.93
2017-06-23T09:39:16.592Z,60.35
2017-06-23T09:40:16.212Z,60.22
2017-06-23T09:41:16.470Z,59.58
2017-06-23T09:42:16.405Z,59.64
2017-06-23T09:43:16.692Z,59.19
2017-06-23T09:44:16.279Z,59.86
2017-06-23T09:45:16.218Z,59.86
2017-06-23T09:46:16.157Z,59.48
2017-06-23T09:47:15.766Z,59.74
2017-06-23T09:48:16.032Z,60.06
2017-06-23T09:49:15.967Z,59.09
2017-06-23T09:50:16.007Z,58.68
2017-06-23T09:51:15.843Z,59.35
2017-06-23T09:52:15.780Z,58.77
2017-06-23T09:53:15.716Z,58.51
2017-06-23T09:54:15.656Z,58.8
2017-06-23T09:55:15.755Z,58.8
2017-06-23T09:56:15.530Z,59.06
2017-06-23T09:57:15.491Z,58.77
2017-06-23T09:58:15.406Z,58.61
2017-06-23T09:59:15.349Z,58.68
2017-06-23T10:00:15.282Z,59.09
2017-06-23T10:01:15.221Z,58.58
2017-06-23T10:02:15.159Z,59
2017-06-23T10:03:14.766Z,58.32
2017-06-23T10:04:15.031Z,58.77
2017-06-23T10:05:14.641Z,59
2017-06-23T10:06:14.906Z,58.8
2017-06-23T10:07:14.843Z,58.51
2017-06-23T10:08:14.793Z,58.8
2017-06-23T10:09:14.391Z,58.61
2017-06-23T10:10:14.667Z,59
2017-06-23T10:11:14.603Z,58.8
2017-06-23T10:12:14.532Z,58.22
2017-06-23T10:13:14.470Z,57.93
2017-06-23T10:14:14.419Z,57.93
2017-06-23T10:15:14.176Z,57.74
2017-06-23T10:16:14.282Z,57.74
2017-06-23T10:17:14.220Z,57.26
2017-06-23T10:18:14.161Z,57.9
2017-06-23T10:19:13.776Z,57.93
2017-06-23T10:20:14.134Z,57.93
2017-06-23T10:21:13.970Z,57.64
2017-06-23T10:22:13.916Z,57.32
2017-06-23T10:23:13.854Z,57.35
2017-06-23T10:24:13.789Z,57.35
2017-06-23T10:25:13.722Z,57.06
2017-06-23T10:26:13.660Z,57.42
2017-06-23T10:27:13.616Z,57.54
2017-06-23T10:28:13.546Z,57.14
2017-06-23T10:29:13.481Z,57.64
2017-06-23T10:30:13.090Z,57.14
2017-06-23T10:31:13.363Z,57.26
2017-06-23T10:32:12.967Z,57.45
2017-06-23T10:33:13.222Z,57.74
2017-06-23T10:34:13.172Z,57.93
2017-06-23T10:35:13.098Z,57.45
2017-06-23T10:36:13.047Z,57.26
2017-06-23T10:37:12.974Z,57.32
2017-06-23T10:38:12.910Z,57.35
2017-06-23T10:39:12.858Z,57.26
2017-06-23T10:40:12.794Z,57.45
2017-06-23T10:41:12.396Z,56.96
2017-06-23T10:42:12.661Z,57.54
2017-06-23T10:43:12.607Z,57.16
2017-06-23T10:44:12.545Z,56.96
2017-06-23T10:45:12.149Z,57.16
2017-06-23T10:46:12.419Z,57.35
2017-06-23T10:47:12.359Z,57.06
2017-06-23T10:48:12.288Z,57.06
2017-06-23T10:49:11.961Z,56.77
2017-06-23T10:50:12.162Z,57.74
2017-06-23T10:51:12.102Z,57.14
2017-06-23T10:52:12.048Z,57.16
2017-06-23T10:53:11.661Z,57.35
2017-06-23T10:54:11.914Z,56.96
2017-06-23T10:55:11.857Z,57.35
2017-06-23T10:56:11.789Z,57.16
2017-06-23T10:57:11.726Z,56.87
2017-06-23T10:58:11.663Z,57.06
2017-06-23T10:59:11.602Z,56.96
2017-06-23T11:00:11.542Z,56.48
2017-06-23T11:01:11.481Z,57.26
2017-06-23T11:02:11.422Z,57.16
2017-06-23T11:03:11.354Z,56.96
2017-06-23T11:04:11.291Z,57.26
2017-06-23T11:05:11.231Z,57.16
2017-06-23T11:06:11.175Z,56.77
2017-06-23T11:07:11.110Z,56.39
2017-06-23T11:08:11.045Z,57.06
2017-06-23T11:09:10.982Z,56.87
2017-06-23T11:10:10.589Z,56.96
2017-06-23T11:11:10.855Z,57.26
2017-06-23T11:12:10.792Z,56.77
2017-06-23T11:13:10.734Z,56.39
2017-06-23T11:14:10.339Z,56.87
2017-06-23T11:15:10.617Z,56.29
2017-06-23T11:16:10.545Z,56.48
2017-06-23T11:17:10.482Z,56.68
2017-06-23T11:18:10.418Z,56.39
2017-06-23T11:19:10.357Z,56.48
2017-06-23T11:20:10.295Z,56
2017-06-23T11:21:10.231Z,56.87
2017-06-23T11:22:10.169Z,56
2017-06-23T11:23:10.108Z,56.29
2017-06-23T11:24:10.045Z,56.2
2017-06-23T11:25:09.983Z,56.39
2017-06-23T11:26:09.920Z,56.39
2017-06-23T11:27:09.860Z,55.81
2017-06-23T11:28:09.795Z,56.2
2017-06-23T11:29:09.732Z,55.81
2017-06-23T11:30:09.670Z,56
2017-06-23T11:31:09.293Z,56.2
2017-06-23T11:32:09.545Z,55.9
2017-06-23T11:33:09.483Z,55.81
2017-06-23T11:34:09.422Z,56.2
2017-06-23T11:35:09.358Z,55.9
2017-06-23T11:36:09.298Z,55.71
2017-06-23T11:37:09.235Z,56.1
2017-06-23T11:38:09.172Z,56
2017-06-23T11:39:09.114Z,55.81
2017-06-23T11:40:09.048Z,55.62
2017-06-23T11:41:08.988Z,55.52
2017-06-23T11:42:08.922Z,55.71
2017-06-23T11:43:08.863Z,56
2017-06-23T11:44:08.472Z,55.71
2017-06-23T11:45:09.036Z,56.1
2017-06-23T11:46:08.673Z,55.71
2017-06-23T11:47:08.282Z,55.62
2017-06-23T11:48:08.548Z,55.71
2017-06-23T11:49:08.487Z,55.9
2017-06-23T11:50:08.580Z,56
2017-06-23T11:51:08.372Z,55.81
2017-06-23T11:52:08.303Z,55.81
2017-06-23T11:53:08.237Z,55.42
2017-06-23T11:54:08.175Z,55.62
2017-06-23T11:55:08.113Z,55.62
2017-06-23T11:56:08.053Z,55.42
2017-06-23T11:57:07.991Z,55.62
2017-06-23T11:58:07.925Z,56
2017-06-23T11:59:07.865Z,55.81
2017-06-23T12:00:07.805Z,55.71
2017-06-23T12:01:07.741Z,55.81
2017-06-23T12:02:07.677Z,55.33
2017-06-23T12:03:07.616Z,55.81
2017-06-23T12:04:07.227Z,55.62
2017-06-23T12:05:07.490Z,55.71
2017-06-23T12:06:07.433Z,55.62
2017-06-23T12:07:07.367Z,55.33
2017-06-23T12:08:07.322Z,55.33
2017-06-23T12:09:07.240Z,55.33
2017-06-23T12:10:07.179Z,55.9
2017-06-23T12:11:07.119Z,55.62
2017-06-23T12:12:07.057Z,55.71
2017-06-23T12:13:07.194Z,55.52
2017-06-23T12:14:06.930Z,55.52
2017-06-23T12:15:06.869Z,56
2017-06-23T12:16:06.483Z,56
2017-06-23T12:17:06.747Z,56.1
2017-06-23T12:18:06.688Z,56
2017-06-23T12:19:06.622Z,55.71
2017-06-23T12:20:06.241Z,55.62
2017-06-23T12:21:06.495Z,55.62
2017-06-23T12:22:06.442Z,55.62
2017-06-23T12:23:06.370Z,55.62
2017-06-23T12:24:06.310Z,55.62
2017-06-23T12:25:06.246Z,55.52
2017-06-23T12:26:06.184Z,55.81
2017-06-23T12:27:06.122Z,55.98
2017-06-23T12:28:06.060Z,56.2
2017-06-23T12:29:06.001Z,56.1
2017-06-23T12:30:05.611Z,56.07
2017-06-23T12:31:05.541Z,56.2
2017-06-23T12:32:05.812Z,56.2
2017-06-23T12:33:05.746Z,56.1
2017-06-23T12:34:05.356Z,55.98
2017-06-23T12:35:05.293Z,55.9
2017-06-23T12:36:05.560Z,56
2017-06-23T12:37:05.496Z,55.9
2017-06-23T12:38:05.450Z,55.98
2017-06-23T12:39:05.371Z,56
2017-06-23T12:40:05.321Z,55.81
2017-06-23T12:41:05.247Z,55.9
2017-06-23T12:42:05.183Z,56.1
2017-06-23T12:43:05.123Z,55.9
2017-06-23T12:44:05.058Z,56.1
2017-06-23T12:45:04.669Z,56
2017-06-23T12:46:04.607Z,55.78
2017-06-23T12:47:04.545Z,55.88
2017-06-23T12:48:04.811Z,56.2
2017-06-23T12:49:04.753Z,55.81
2017-06-23T12:50:04.690Z,55.81
2017-06-23T12:51:04.626Z,55.81
2017-06-23T12:52:04.232Z,55.81
2017-06-23T12:53:04.507Z,55.81
2017-06-23T12:54:04.438Z,55.98
2017-06-23T12:55:04.145Z,56.2
2017-06-23T12:56:04.321Z,56.39
2017-06-23T12:57:04.250Z,56.39
2017-06-23T12:58:04.186Z,56.94
2017-06-23T12:59:04.125Z,56.87